sensor_id;sensor_type;location;lat;lon;timestamp;temperature;humidity
71047;SHT31;58703;48.978;8.982;2022-10-26T00:02:18;11.44;99.78
71047;SHT31;58703;48.978;8.982;2022-10-26T00:04:44;11.42;99.80
71047;SHT31;58703;48.978;8.982;2022-10-26T00:07:10;11.46;99.50
71047;SHT31;58703;48.978;8.982;2022-10-26T00:09:36;11.44;99.67
71047;SHT31;58703;48.978;8.982;2022-10-26T00:12:02;11.46;99.82
71047;SHT31;58703;48.978;8.982;2022-10-26T00:14:29;11.50;99.65
71047;SHT31;58703;48.978;8.982;2022-10-26T00:16:55;11.49;99.75
71047;SHT31;58703;48.978;8.982;2022-10-26T00:19:20;11.53;99.56
71047;SHT31;58703;48.978;8.982;2022-10-26T00:21:46;11.53;99.46
71047;SHT31;58703;48.978;8.982;2022-10-26T00:24:12;11.52;99.53
71047;SHT31;58703;48.978;8.982;2022-10-26T00:26:38;11.53;99.35
71047;SHT31;58703;48.978;8.982;2022-10-26T00:29:05;11.56;99.55
71047;SHT31;58703;48.978;8.982;2022-10-26T00:31:32;11.62;99.07
71047;SHT31;58703;48.978;8.982;2022-10-26T00:33:57;11.59;99.18
71047;SHT31;58703;48.978;8.982;2022-10-26T00:36:24;11.54;99.37
71047;SHT31;58703;48.978;8.982;2022-10-26T00:38:52;11.49;99.54
71047;SHT31;58703;48.978;8.982;2022-10-26T00:41:23;11.59;99.22
71047;SHT31;58703;48.978;8.982;2022-10-26T00:43:50;11.54;99.49
71047;SHT31;58703;48.978;8.982;2022-10-26T00:46:30;11.49;99.80
71047;SHT31;58703;48.978;8.982;2022-10-26T00:49:00;11.57;99.51
71047;SHT31;58703;48.978;8.982;2022-10-26T00:51:30;11.60;99.42
71047;SHT31;58703;48.978;8.982;2022-10-26T00:54:05;11.53;99.75
71047;SHT31;58703;48.978;8.982;2022-10-26T00:56:32;11.52;99.79
71047;SHT31;58703;48.978;8.982;2022-10-26T00:59:04;11.56;99.79
71047;SHT31;58703;48.978;8.982;2022-10-26T01:01:32;11.57;99.55
71047;SHT31;58703;48.978;8.982;2022-10-26T01:04:00;11.54;99.62
71047;SHT31;58703;48.978;8.982;2022-10-26T01:06:30;11.62;99.56
71047;SHT31;58703;48.978;8.982;2022-10-26T01:08:57;11.63;99.29
71047;SHT31;58703;48.978;8.982;2022-10-26T01:11:23;11.56;99.62
71047;SHT31;58703;48.978;8.982;2022-10-26T01:13:52;11.64;99.72
71047;SHT31;58703;48.978;8.982;2022-10-26T01:22:14;11.74;99.33
71047;SHT31;58703;48.978;8.982;2022-10-26T01:25:12;11.71;99.23
71047;SHT31;58703;48.978;8.982;2022-10-26T01:27:46;11.73;99.08
71047;SHT31;58703;48.978;8.982;2022-10-26T01:43:47;11.69;99.37
71047;SHT31;58703;48.978;8.982;2022-10-26T01:46:16;11.60;99.60
71047;SHT31;58703;48.978;8.982;2022-10-26T01:48:43;11.60;99.75
71047;SHT31;58703;48.978;8.982;2022-10-26T01:51:10;11.56;99.99
71047;SHT31;58703;48.978;8.982;2022-10-26T01:53:43;11.56;99.99
71047;SHT31;58703;48.978;8.982;2022-10-26T01:56:16;11.56;99.99
71047;SHT31;58703;48.978;8.982;2022-10-26T01:59:02;11.54;99.99
71047;SHT31;58703;48.978;8.982;2022-10-26T02:07:34;11.62;99.99
71047;SHT31;58703;48.978;8.982;2022-10-26T02:10:38;11.69;99.80
71047;SHT31;58703;48.978;8.982;2022-10-26T02:13:19;11.62;99.99
71047;SHT31;58703;48.978;8.982;2022-10-26T02:16:05;11.59;99.99
71047;SHT31;58703;48.978;8.982;2022-10-26T02:19:04;11.60;99.99
71047;SHT31;58703;48.978;8.982;2022-10-26T02:21:37;11.63;99.99
71047;SHT31;58703;48.978;8.982;2022-10-26T02:24:06;11.63;99.99
71047;SHT31;58703;48.978;8.982;2022-10-26T02:26:33;11.66;99.82
71047;SHT31;58703;48.978;8.982;2022-10-26T02:29:03;11.63;99.83
71047;SHT31;58703;48.978;8.982;2022-10-26T02:31:32;11.60;99.99
71047;SHT31;58703;48.978;8.982;2022-10-26T02:34:02;11.63;99.99
71047;SHT31;58703;48.978;8.982;2022-10-26T02:36:33;11.69;99.85
71047;SHT31;58703;48.978;8.982;2022-10-26T02:39:02;11.71;99.09
71047;SHT31;58703;48.978;8.982;2022-10-26T02:41:29;11.70;98.78
71047;SHT31;58703;48.978;8.982;2022-10-26T02:44:12;11.74;99.19
71047;SHT31;58703;48.978;8.982;2022-10-26T02:46:38;11.80;98.99
71047;SHT31;58703;48.978;8.982;2022-10-26T02:49:05;11.81;99.31
71047;SHT31;58703;48.978;8.982;2022-10-26T02:51:48;11.85;99.02
71047;SHT31;58703;48.978;8.982;2022-10-26T02:56:53;11.67;99.90
71047;SHT31;58703;48.978;8.982;2022-10-26T02:59:21;11.67;99.97
71047;SHT31;58703;48.978;8.982;2022-10-26T03:01:49;11.74;99.33
71047;SHT31;58703;48.978;8.982;2022-10-26T03:04:16;11.67;99.78
71047;SHT31;58703;48.978;8.982;2022-10-26T03:06:51;11.64;99.96
71047;SHT31;58703;48.978;8.982;2022-10-26T03:09:17;11.69;99.75
71047;SHT31;58703;48.978;8.982;2022-10-26T03:11:43;11.67;99.70
71047;SHT31;58703;48.978;8.982;2022-10-26T03:14:08;11.69;99.73
71047;SHT31;58703;48.978;8.982;2022-10-26T03:16:34;11.70;99.73
71047;SHT31;58703;48.978;8.982;2022-10-26T03:18:59;11.77;99.49
71047;SHT31;58703;48.978;8.982;2022-10-26T03:21:26;11.74;99.48
71047;SHT31;58703;48.978;8.982;2022-10-26T03:23:53;11.71;99.63
71047;SHT31;58703;48.978;8.982;2022-10-26T03:26:20;11.66;99.90
71047;SHT31;58703;48.978;8.982;2022-10-26T03:28:46;11.64;99.94
71047;SHT31;58703;48.978;8.982;2022-10-26T03:31:11;11.69;99.89
71047;SHT31;58703;48.978;8.982;2022-10-26T03:33:37;11.67;99.85
71047;SHT31;58703;48.978;8.982;2022-10-26T03:36:04;11.64;99.93
71047;SHT31;58703;48.978;8.982;2022-10-26T03:38:30;11.75;99.65
71047;SHT31;58703;48.978;8.982;2022-10-26T03:40:57;11.71;99.80
71047;SHT31;58703;48.978;8.982;2022-10-26T03:43:22;11.67;99.82
71047;SHT31;58703;48.978;8.982;2022-10-26T03:45:48;11.74;99.65
71047;SHT31;58703;48.978;8.982;2022-10-26T03:48:13;11.67;99.78
71047;SHT31;58703;48.978;8.982;2022-10-26T03:50:39;11.66;99.87
71047;SHT31;58703;48.978;8.982;2022-10-26T03:53:06;11.69;99.89
71047;SHT31;58703;48.978;8.982;2022-10-26T03:55:32;11.69;99.83
71047;SHT31;58703;48.978;8.982;2022-10-26T03:57:57;11.70;99.88
71047;SHT31;58703;48.978;8.982;2022-10-26T04:00:23;11.70;99.76
71047;SHT31;58703;48.978;8.982;2022-10-26T04:02:58;11.70;99.63
71047;SHT31;58703;48.978;8.982;2022-10-26T04:05:26;11.71;99.59
71047;SHT31;58703;48.978;8.982;2022-10-26T04:07:58;11.80;99.53
71047;SHT31;58703;48.978;8.982;2022-10-26T04:10:26;11.87;99.15
71047;SHT31;58703;48.978;8.982;2022-10-26T04:12:52;11.91;98.95
71047;SHT31;58703;48.978;8.982;2022-10-26T04:15:20;11.84;99.28
71047;SHT31;58703;48.978;8.982;2022-10-26T04:17:45;11.81;99.08
71047;SHT31;58703;48.978;8.982;2022-10-26T04:20:11;11.80;99.23
71047;SHT31;58703;48.978;8.982;2022-10-26T04:22:37;11.74;99.33
71047;SHT31;58703;48.978;8.982;2022-10-26T04:25:05;11.80;99.27
71047;SHT31;58703;48.978;8.982;2022-10-26T04:27:32;11.95;98.12
71047;SHT31;58703;48.978;8.982;2022-10-26T04:29:58;11.98;97.64
71047;SHT31;58703;48.978;8.982;2022-10-26T04:32:25;12.08;97.21
71047;SHT31;58703;48.978;8.982;2022-10-26T04:34:51;12.14;97.01
71047;SHT31;58703;48.978;8.982;2022-10-26T04:37:18;12.21;96.62
71047;SHT31;58703;48.978;8.982;2022-10-26T04:39:45;12.26;96.32
71047;SHT31;58703;48.978;8.982;2022-10-26T04:42:10;12.31;96.29
71047;SHT31;58703;48.978;8.982;2022-10-26T04:44:36;12.29;96.35
71047;SHT31;58703;48.978;8.982;2022-10-26T04:47:01;12.36;96.10
71047;SHT31;58703;48.978;8.982;2022-10-26T04:49:27;12.24;96.52
71047;SHT31;58703;48.978;8.982;2022-10-26T04:51:52;12.20;96.92
71047;SHT31;58703;48.978;8.982;2022-10-26T04:54:18;12.26;96.86
71047;SHT31;58703;48.978;8.982;2022-10-26T04:56:44;12.32;96.70
71047;SHT31;58703;48.978;8.982;2022-10-26T04:59:09;12.34;96.54
71047;SHT31;58703;48.978;8.982;2022-10-26T05:01:35;12.28;96.69
71047;SHT31;58703;48.978;8.982;2022-10-26T05:04:00;12.17;97.57
71047;SHT31;58703;48.978;8.982;2022-10-26T05:06:26;12.11;97.72
71047;SHT31;58703;48.978;8.982;2022-10-26T05:08:51;12.11;97.59
71047;SHT31;58703;48.978;8.982;2022-10-26T05:11:17;12.01;98.01
71047;SHT31;58703;48.978;8.982;2022-10-26T05:13:43;12.07;97.53
71047;SHT31;58703;48.978;8.982;2022-10-26T05:16:08;12.08;97.44
71047;SHT31;58703;48.978;8.982;2022-10-26T05:18:34;12.13;97.23
71047;SHT31;58703;48.978;8.982;2022-10-26T05:21:00;12.14;97.20
71047;SHT31;58703;48.978;8.982;2022-10-26T05:23:25;12.15;97.32
71047;SHT31;58703;48.978;8.982;2022-10-26T05:25:51;12.08;97.37
71047;SHT31;58703;48.978;8.982;2022-10-26T05:28:19;12.07;97.55
71047;SHT31;58703;48.978;8.982;2022-10-26T05:30:45;12.14;97.22
71047;SHT31;58703;48.978;8.982;2022-10-26T05:33:11;12.13;97.65
71047;SHT31;58703;48.978;8.982;2022-10-26T05:35:37;12.10;97.31
71047;SHT31;58703;48.978;8.982;2022-10-26T05:38:08;12.05;97.52
71047;SHT31;58703;48.978;8.982;2022-10-26T05:40:33;12.08;97.64
71047;SHT31;58703;48.978;8.982;2022-10-26T05:43:00;12.08;97.91
71047;SHT31;58703;48.978;8.982;2022-10-26T05:45:28;12.15;97.95
71047;SHT31;58703;48.978;8.982;2022-10-26T05:47:54;12.25;97.60
71047;SHT31;58703;48.978;8.982;2022-10-26T05:50:19;12.22;97.64
71047;SHT31;58703;48.978;8.982;2022-10-26T05:52:46;12.26;97.20
71047;SHT31;58703;48.978;8.982;2022-10-26T05:55:14;12.22;97.22
71047;SHT31;58703;48.978;8.982;2022-10-26T05:57:40;12.29;97.05
71047;SHT31;58703;48.978;8.982;2022-10-26T06:00:26;12.26;97.53
71047;SHT31;58703;48.978;8.982;2022-10-26T06:03:31;12.22;97.75
71047;SHT31;58703;48.978;8.982;2022-10-26T06:05:59;12.20;97.74
71047;SHT31;58703;48.978;8.982;2022-10-26T06:08:27;12.17;98.00
71047;SHT31;58703;48.978;8.982;2022-10-26T06:10:54;12.13;97.99
71047;SHT31;58703;48.978;8.982;2022-10-26T06:13:20;12.31;97.52
71047;SHT31;58703;48.978;8.982;2022-10-26T06:24:26;12.02;99.99
71047;SHT31;58703;48.978;8.982;2022-10-26T06:30:09;12.04;99.99
71047;SHT31;58703;48.978;8.982;2022-10-26T06:32:42;12.07;99.99
71047;SHT31;58703;48.978;8.982;2022-10-26T06:35:20;12.14;99.89
71047;SHT31;58703;48.978;8.982;2022-10-26T06:37:47;12.18;99.49
71047;SHT31;58703;48.978;8.982;2022-10-26T06:40:15;12.11;99.99
71047;SHT31;58703;48.978;8.982;2022-10-26T06:42:41;12.04;99.99
71047;SHT31;58703;48.978;8.982;2022-10-26T06:45:16;12.15;99.99
71047;SHT31;58703;48.978;8.982;2022-10-26T06:48:05;12.05;99.99
71047;SHT31;58703;48.978;8.982;2022-10-26T06:55:44;11.97;99.99
71047;SHT31;58703;48.978;8.982;2022-10-26T06:58:16;12.05;99.99
71047;SHT31;58703;48.978;8.982;2022-10-26T07:00:43;12.05;99.99
71047;SHT31;58703;48.978;8.982;2022-10-26T07:03:10;12.07;99.99
71047;SHT31;58703;48.978;8.982;2022-10-26T07:05:36;12.07;99.99
71047;SHT31;58703;48.978;8.982;2022-10-26T07:08:01;12.14;99.99
71047;SHT31;58703;48.978;8.982;2022-10-26T07:10:27;12.21;99.99
71047;SHT31;58703;48.978;8.982;2022-10-26T07:12:53;12.34;99.99
71047;SHT31;58703;48.978;8.982;2022-10-26T07:15:18;12.42;99.99
71047;SHT31;58703;48.978;8.982;2022-10-26T07:17:45;12.46;99.93
71047;SHT31;58703;48.978;8.982;2022-10-26T07:20:13;12.59;99.91
71047;SHT31;58703;48.978;8.982;2022-10-26T07:22:39;12.72;99.13
71047;SHT31;58703;48.978;8.982;2022-10-26T07:25:07;12.83;98.96
71047;SHT31;58703;48.978;8.982;2022-10-26T07:27:34;12.92;98.45
71047;SHT31;58703;48.978;8.982;2022-10-26T07:30:00;12.92;99.03
71047;SHT31;58703;48.978;8.982;2022-10-26T07:32:26;12.96;98.83
71047;SHT31;58703;48.978;8.982;2022-10-26T07:34:51;12.93;99.25
71047;SHT31;58703;48.978;8.982;2022-10-26T07:37:17;12.96;99.56
71047;SHT31;58703;48.978;8.982;2022-10-26T07:39:42;12.90;99.83
71047;SHT31;58703;48.978;8.982;2022-10-26T07:42:08;12.86;99.99
71047;SHT31;58703;48.978;8.982;2022-10-26T07:44:34;12.86;99.99
71047;SHT31;58703;48.978;8.982;2022-10-26T07:47:00;12.87;99.99
71047;SHT31;58703;48.978;8.982;2022-10-26T07:49:26;12.85;99.84
71047;SHT31;58703;48.978;8.982;2022-10-26T07:51:51;12.97;99.99
71047;SHT31;58703;48.978;8.982;2022-10-26T07:54:17;13.02;99.99
71047;SHT31;58703;48.978;8.982;2022-10-26T07:56:42;13.10;99.88
71047;SHT31;58703;48.978;8.982;2022-10-26T07:59:10;13.14;99.53
71047;SHT31;58703;48.978;8.982;2022-10-26T08:01:36;13.33;99.29
71047;SHT31;58703;48.978;8.982;2022-10-26T08:04:02;13.38;98.89
71047;SHT31;58703;48.978;8.982;2022-10-26T08:06:27;13.46;98.03
71047;SHT31;58703;48.978;8.982;2022-10-26T08:08:53;13.57;97.67
71047;SHT31;58703;48.978;8.982;2022-10-26T08:11:19;13.58;97.77
71047;SHT31;58703;48.978;8.982;2022-10-26T08:13:44;13.61;97.79
71047;SHT31;58703;48.978;8.982;2022-10-26T08:16:10;13.70;97.10
71047;SHT31;58703;48.978;8.982;2022-10-26T08:18:36;13.77;97.26
71047;SHT31;58703;48.978;8.982;2022-10-26T08:21:06;13.88;97.02
71047;SHT31;58703;48.978;8.982;2022-10-26T08:23:33;13.92;97.14
71047;SHT31;58703;48.978;8.982;2022-10-26T08:26:00;14.02;96.50
71047;SHT31;58703;48.978;8.982;2022-10-26T08:28:27;14.12;96.42
71047;SHT31;58703;48.978;8.982;2022-10-26T08:30:54;14.26;95.60
71047;SHT31;58703;48.978;8.982;2022-10-26T08:33:21;14.32;95.53
71047;SHT31;58703;48.978;8.982;2022-10-26T08:35:47;14.39;95.32
71047;SHT31;58703;48.978;8.982;2022-10-26T08:38:13;14.46;95.38
71047;SHT31;58703;48.978;8.982;2022-10-26T08:40:40;14.43;95.91
71047;SHT31;58703;48.978;8.982;2022-10-26T08:45:38;14.59;95.10
71047;SHT31;58703;48.978;8.982;2022-10-26T08:48:16;14.66;95.38
71047;SHT31;58703;48.978;8.982;2022-10-26T08:50:53;14.85;94.88
71047;SHT31;58703;48.978;8.982;2022-10-26T08:56:09;15.24;93.56
71047;SHT31;58703;48.978;8.982;2022-10-26T08:58:44;15.20;93.62
71047;SHT31;58703;48.978;8.982;2022-10-26T09:01:11;15.36;93.06
71047;SHT31;58703;48.978;8.982;2022-10-26T09:03:37;15.49;93.42
71047;SHT31;58703;48.978;8.982;2022-10-26T09:11:54;15.79;91.70
71047;SHT31;58703;48.978;8.982;2022-10-26T09:20:34;16.06;90.17
71047;SHT31;58703;48.978;8.982;2022-10-26T09:23:22;16.43;90.67
71047;SHT31;58703;48.978;8.982;2022-10-26T09:25:53;16.61;91.52
71047;SHT31;58703;48.978;8.982;2022-10-26T09:28:22;16.96;89.12
71047;SHT31;58703;48.978;8.982;2022-10-26T09:30:48;17.45;88.86
71047;SHT31;58703;48.978;8.982;2022-10-26T09:33:18;17.84;85.50
71047;SHT31;58703;48.978;8.982;2022-10-26T09:35:51;18.37;82.89
71047;SHT31;58703;48.978;8.982;2022-10-26T09:38:23;18.43;82.59
71047;SHT31;58703;48.978;8.982;2022-10-26T09:40:58;18.98;79.54
71047;SHT31;58703;48.978;8.982;2022-10-26T09:43:32;19.36;83.53
71047;SHT31;58703;48.978;8.982;2022-10-26T09:46:00;19.74;83.15
71047;SHT31;58703;48.978;8.982;2022-10-26T09:48:32;19.73;78.68
71047;SHT31;58703;48.978;8.982;2022-10-26T09:51:00;19.92;77.68
71047;SHT31;58703;48.978;8.982;2022-10-26T09:53:26;19.98;80.67
71047;SHT31;58703;48.978;8.982;2022-10-26T09:56:11;19.27;78.56
71047;SHT31;58703;48.978;8.982;2022-10-26T09:58:47;19.20;81.05
71047;SHT31;58703;48.978;8.982;2022-10-26T10:06:42;19.46;81.31
71047;SHT31;58703;48.978;8.982;2022-10-26T10:09:22;19.15;81.36
71047;SHT31;58703;48.978;8.982;2022-10-26T10:11:58;19.36;80.14
71047;SHT31;58703;48.978;8.982;2022-10-26T10:14:32;19.58;80.09
71047;SHT31;58703;48.978;8.982;2022-10-26T10:17:03;19.75;79.20
71047;SHT31;58703;48.978;8.982;2022-10-26T10:19:34;20.15;79.86
71047;SHT31;58703;48.978;8.982;2022-10-26T10:22:23;20.46;76.08
71047;SHT31;58703;48.978;8.982;2022-10-26T10:24:55;20.76;75.77
71047;SHT31;58703;48.978;8.982;2022-10-26T10:27:21;21.35;75.64
71047;SHT31;58703;48.978;8.982;2022-10-26T10:29:52;21.78;74.82
71047;SHT31;58703;48.978;8.982;2022-10-26T10:32:20;22.17;73.95
71047;SHT31;58703;48.978;8.982;2022-10-26T10:34:48;22.42;70.56
71047;SHT31;58703;48.978;8.982;2022-10-26T10:37:30;22.22;70.23
71047;SHT31;58703;48.978;8.982;2022-10-26T10:40:00;22.17;70.68
71047;SHT31;58703;48.978;8.982;2022-10-26T10:42:33;22.30;69.14
71047;SHT31;58703;48.978;8.982;2022-10-26T10:45:01;22.84;70.30
71047;SHT31;58703;48.978;8.982;2022-10-26T10:47:32;22.77;69.05
71047;SHT31;58703;48.978;8.982;2022-10-26T10:50:15;22.59;66.73
71047;SHT31;58703;48.978;8.982;2022-10-26T10:52:42;23.24;66.57
71047;SHT31;58703;48.978;8.982;2022-10-26T11:00:36;22.59;69.06
71047;SHT31;58703;48.978;8.982;2022-10-26T11:03:39;21.26;68.38
71047;SHT31;58703;48.978;8.982;2022-10-26T11:06:15;21.47;72.39
71047;SHT31;58703;48.978;8.982;2022-10-26T11:08:59;22.05;70.76
71047;SHT31;58703;48.978;8.982;2022-10-26T11:11:32;21.47;68.08
71047;SHT31;58703;48.978;8.982;2022-10-26T11:16:51;21.22;67.90
71047;SHT31;58703;48.978;8.982;2022-10-26T11:19:28;21.23;68.16
71047;SHT31;58703;48.978;8.982;2022-10-26T11:21:55;21.17;67.49
71047;SHT31;58703;48.978;8.982;2022-10-26T11:27:02;20.82;70.03
71047;SHT31;58703;48.978;8.982;2022-10-26T11:32:23;21.06;70.02
71047;SHT31;58703;48.978;8.982;2022-10-26T11:40:44;20.94;68.08
71047;SHT31;58703;48.978;8.982;2022-10-26T11:43:25;20.87;69.11
71047;SHT31;58703;48.978;8.982;2022-10-26T11:51:35;20.93;69.08
71047;SHT31;58703;48.978;8.982;2022-10-26T11:54:08;21.00;70.13
71047;SHT31;58703;48.978;8.982;2022-10-26T11:56:47;21.00;68.53
71047;SHT31;58703;48.978;8.982;2022-10-26T11:59:22;21.24;68.50
71047;SHT31;58703;48.978;8.982;2022-10-26T12:01:51;21.08;68.05
71047;SHT31;58703;48.978;8.982;2022-10-26T12:04:21;21.30;68.34
71047;SHT31;58703;48.978;8.982;2022-10-26T12:06:48;21.17;67.20
71047;SHT31;58703;48.978;8.982;2022-10-26T12:09:19;21.31;66.03
71047;SHT31;58703;48.978;8.982;2022-10-26T12:11:55;21.40;67.19
71047;SHT31;58703;48.978;8.982;2022-10-26T12:14:49;21.34;67.35
71047;SHT31;58703;48.978;8.982;2022-10-26T12:17:16;21.44;66.81
71047;SHT31;58703;48.978;8.982;2022-10-26T12:22:19;21.24;67.77
71047;SHT31;58703;48.978;8.982;2022-10-26T12:25:04;21.27;68.36
71047;SHT31;58703;48.978;8.982;2022-10-26T12:35:28;21.77;69.00
71047;SHT31;58703;48.978;8.982;2022-10-26T12:37:55;21.68;67.73
71047;SHT31;58703;48.978;8.982;2022-10-26T12:42:57;21.88;66.40
71047;SHT31;58703;48.978;8.982;2022-10-26T12:46:35;22.08;65.78
71047;SHT31;58703;48.978;8.982;2022-10-26T12:48:43;22.52;65.43
71047;SHT31;58703;48.978;8.982;2022-10-26T12:57:23;23.39;62.85
71047;SHT31;58703;48.978;8.982;2022-10-26T12:59:59;23.00;62.52
71047;SHT31;58703;48.978;8.982;2022-10-26T13:02:37;22.73;64.97
71047;SHT31;58703;48.978;8.982;2022-10-26T13:05:25;22.53;66.34
71047;SHT31;58703;48.978;8.982;2022-10-26T13:08:03;22.91;64.61
71047;SHT31;58703;48.978;8.982;2022-10-26T13:10:31;23.03;63.92
71047;SHT31;58703;48.978;8.982;2022-10-26T13:13:01;23.45;63.77
71047;SHT31;58703;48.978;8.982;2022-10-26T13:15:40;23.63;60.90
71047;SHT31;58703;48.978;8.982;2022-10-26T13:18:17;23.83;62.61
71047;SHT31;58703;48.978;8.982;2022-10-26T13:23:25;23.10;62.65
71047;SHT31;58703;48.978;8.982;2022-10-26T13:26:09;22.43;61.40
71047;SHT31;58703;48.978;8.982;2022-10-26T13:31:04;22.06;63.65
71047;SHT31;58703;48.978;8.982;2022-10-26T13:33:37;21.85;63.98
71047;SHT31;58703;48.978;8.982;2022-10-26T13:36:26;22.53;63.70
71047;SHT31;58703;48.978;8.982;2022-10-26T13:38:53;22.87;62.82
71047;SHT31;58703;48.978;8.982;2022-10-26T13:41:31;23.08;60.80
71047;SHT31;58703;48.978;8.982;2022-10-26T13:44:02;22.52;62.11
71047;SHT31;58703;48.978;8.982;2022-10-26T13:46:33;23.11;61.92
71047;SHT31;58703;48.978;8.982;2022-10-26T13:49:06;23.73;61.42
71047;SHT31;58703;48.978;8.982;2022-10-26T13:51:39;23.54;59.22
71047;SHT31;58703;48.978;8.982;2022-10-26T13:54:22;23.66;59.86
71047;SHT31;58703;48.978;8.982;2022-10-26T13:57:28;25.19;58.10
71047;SHT31;58703;48.978;8.982;2022-10-26T13:59:57;25.12;57.62
71047;SHT31;58703;48.978;8.982;2022-10-26T14:02:28;25.01;57.57
71047;SHT31;58703;48.978;8.982;2022-10-26T14:05:03;24.41;56.58
71047;SHT31;58703;48.978;8.982;2022-10-26T14:07:38;24.20;58.92
71047;SHT31;58703;48.978;8.982;2022-10-26T14:10:05;25.21;56.36
71047;SHT31;58703;48.978;8.982;2022-10-26T14:12:31;25.38;54.35
71047;SHT31;58703;48.978;8.982;2022-10-26T14:15:06;24.41;56.77
71047;SHT31;58703;48.978;8.982;2022-10-26T14:17:32;24.23;57.30
71047;SHT31;58703;48.978;8.982;2022-10-26T14:19:58;24.51;57.94
71047;SHT31;58703;48.978;8.982;2022-10-26T14:22:26;25.19;56.60
71047;SHT31;58703;48.978;8.982;2022-10-26T14:24:54;25.80;55.95
71047;SHT31;58703;48.978;8.982;2022-10-26T14:27:22;25.45;54.09
71047;SHT31;58703;48.978;8.982;2022-10-26T14:29:50;25.52;54.85
71047;SHT31;58703;48.978;8.982;2022-10-26T14:32:26;23.79;58.04
71047;SHT31;58703;48.978;8.982;2022-10-26T14:34:53;25.11;57.42
71047;SHT31;58703;48.978;8.982;2022-10-26T14:37:38;25.28;55.64
71047;SHT31;58703;48.978;8.982;2022-10-26T14:40:15;25.26;56.28
71047;SHT31;58703;48.978;8.982;2022-10-26T14:42:42;23.59;56.30
71047;SHT31;58703;48.978;8.982;2022-10-26T14:45:37;23.44;58.66
71047;SHT31;58703;48.978;8.982;2022-10-26T14:48:05;24.70;55.85
71047;SHT31;58703;48.978;8.982;2022-10-26T14:50:31;25.07;54.98
71047;SHT31;58703;48.978;8.982;2022-10-26T14:53:13;25.42;54.75
71047;SHT31;58703;48.978;8.982;2022-10-26T14:55:48;25.39;54.50
71047;SHT31;58703;48.978;8.982;2022-10-26T14:58:25;25.65;53.93
71047;SHT31;58703;48.978;8.982;2022-10-26T15:03:43;24.91;56.19
71047;SHT31;58703;48.978;8.982;2022-10-26T15:08:58;25.10;55.52
71047;SHT31;58703;48.978;8.982;2022-10-26T15:11:25;24.09;58.11
71047;SHT31;58703;48.978;8.982;2022-10-26T15:13:52;24.60;57.27
71047;SHT31;58703;48.978;8.982;2022-10-26T15:16:20;23.86;58.46
71047;SHT31;58703;48.978;8.982;2022-10-26T15:18:48;23.69;59.43
71047;SHT31;58703;48.978;8.982;2022-10-26T15:21:33;23.52;59.46
71047;SHT31;58703;48.978;8.982;2022-10-26T15:24:00;23.29;60.51
71047;SHT31;58703;48.978;8.982;2022-10-26T15:26:27;23.44;60.86
71047;SHT31;58703;48.978;8.982;2022-10-26T15:28:54;22.88;61.11
71047;SHT31;58703;48.978;8.982;2022-10-26T15:36:22;21.15;67.71
71047;SHT31;58703;48.978;8.982;2022-10-26T15:38:48;20.75;69.54
71047;SHT31;58703;48.978;8.982;2022-10-26T15:41:27;20.15;70.28
71047;SHT31;58703;48.978;8.982;2022-10-26T15:43:56;19.80;72.25
71047;SHT31;58703;48.978;8.982;2022-10-26T15:46:22;19.77;71.95
71047;SHT31;58703;48.978;8.982;2022-10-26T15:48:56;19.17;73.52
71047;SHT31;58703;48.978;8.982;2022-10-26T15:51:22;19.03;75.14
71047;SHT31;58703;48.978;8.982;2022-10-26T15:53:48;19.00;75.92
71047;SHT31;58703;48.978;8.982;2022-10-26T15:56:16;18.64;77.61
71047;SHT31;58703;48.978;8.982;2022-10-26T15:58:44;17.96;79.51
71047;SHT31;58703;48.978;8.982;2022-10-26T16:01:17;17.57;81.19
71047;SHT31;58703;48.978;8.982;2022-10-26T16:03:43;17.38;81.46
71047;SHT31;58703;48.978;8.982;2022-10-26T16:06:27;17.12;82.44
71047;SHT31;58703;48.978;8.982;2022-10-26T16:08:55;17.04;82.60
71047;SHT31;58703;48.978;8.982;2022-10-26T16:11:22;17.05;82.78
71047;SHT31;58703;48.978;8.982;2022-10-26T16:13:48;16.89;83.30
71047;SHT31;58703;48.978;8.982;2022-10-26T16:16:18;16.85;83.61
71047;SHT31;58703;48.978;8.982;2022-10-26T16:18:44;16.61;84.47
71047;SHT31;58703;48.978;8.982;2022-10-26T16:21:12;16.46;85.13
71047;SHT31;58703;48.978;8.982;2022-10-26T16:23:38;16.43;85.54
71047;SHT31;58703;48.978;8.982;2022-10-26T16:26:04;16.26;85.83
71047;SHT31;58703;48.978;8.982;2022-10-26T16:28:30;16.39;85.56
71047;SHT31;58703;48.978;8.982;2022-10-26T16:31:00;16.21;86.08
71047;SHT31;58703;48.978;8.982;2022-10-26T16:33:26;16.00;86.95
71047;SHT31;58703;48.978;8.982;2022-10-26T16:35:58;15.99;87.20
71047;SHT31;58703;48.978;8.982;2022-10-26T16:38:25;16.07;86.92
71047;SHT31;58703;48.978;8.982;2022-10-26T16:41:01;15.99;87.08
71047;SHT31;58703;48.978;8.982;2022-10-26T16:43:27;15.86;87.62
71047;SHT31;58703;48.978;8.982;2022-10-26T16:45:54;15.75;88.15
71047;SHT31;58703;48.978;8.982;2022-10-26T16:48:20;15.70;88.01
71047;SHT31;58703;48.978;8.982;2022-10-26T16:50:45;15.48;88.87
71047;SHT31;58703;48.978;8.982;2022-10-26T16:53:11;15.34;89.39
71047;SHT31;58703;48.978;8.982;2022-10-26T16:55:36;15.28;89.49
71047;SHT31;58703;48.978;8.982;2022-10-26T16:58:02;15.31;89.56
71047;SHT31;58703;48.978;8.982;2022-10-26T17:00:29;15.11;90.38
71047;SHT31;58703;48.978;8.982;2022-10-26T17:02:54;15.08;90.55
71047;SHT31;58703;48.978;8.982;2022-10-26T17:05:20;15.17;90.25
71047;SHT31;58703;48.978;8.982;2022-10-26T17:07:46;15.15;90.31
71047;SHT31;58703;48.978;8.982;2022-10-26T17:10:11;15.14;90.39
71047;SHT31;58703;48.978;8.982;2022-10-26T17:12:37;15.14;90.63
71047;SHT31;58703;48.978;8.982;2022-10-26T17:15:03;15.05;90.59
71047;SHT31;58703;48.978;8.982;2022-10-26T17:17:28;14.91;90.85
71047;SHT31;58703;48.978;8.982;2022-10-26T17:19:54;14.84;90.68
71047;SHT31;58703;48.978;8.982;2022-10-26T17:22:20;14.60;91.48
71047;SHT31;58703;48.978;8.982;2022-10-26T17:24:46;14.52;91.53
71047;SHT31;58703;48.978;8.982;2022-10-26T17:27:11;14.34;92.36
71047;SHT31;58703;48.978;8.982;2022-10-26T17:29:37;14.28;92.86
71047;SHT31;58703;48.978;8.982;2022-10-26T17:32:02;14.16;93.28
71047;SHT31;58703;48.978;8.982;2022-10-26T17:34:28;14.02;94.12
71047;SHT31;58703;48.978;8.982;2022-10-26T17:36:53;13.95;94.61
71047;SHT31;58703;48.978;8.982;2022-10-26T17:39:19;13.89;95.32
71047;SHT31;58703;48.978;8.982;2022-10-26T17:41:45;13.82;95.68
71047;SHT31;58703;48.978;8.982;2022-10-26T17:44:12;13.79;95.94
71047;SHT31;58703;48.978;8.982;2022-10-26T17:46:39;13.68;96.46
71047;SHT31;58703;48.978;8.982;2022-10-26T17:49:06;13.72;96.55
71047;SHT31;58703;48.978;8.982;2022-10-26T17:51:33;13.77;96.85
71047;SHT31;58703;48.978;8.982;2022-10-26T17:54:00;13.83;96.54
71047;SHT31;58703;48.978;8.982;2022-10-26T17:56:29;13.89;96.11